sensor_id;sensor_type;location;lat;lon;timestamp;pressure;altitude;pressure_sealevel;temperature
77412;BMP280;66484;49.968;19.140;2024-03-23T00:52:43;97194.00;;;13.11
77412;BMP280;66484;49.968;19.140;2024-03-23T00:54:46;97182.53;;;13.11
77412;BMP280;66484;49.968;19.140;2024-03-23T00:56:46;97188.63;;;13.11
77412;BMP280;66484;49.968;19.140;2024-03-23T00:58:47;97193.28;;;13.11
77412;BMP280;66484;49.968;19.140;2024-03-23T01:00:48;97188.63;;;13.11
77412;BMP280;66484;49.968;19.140;2024-03-23T01:02:49;97192.31;;;13.14
77412;BMP280;66484;49.968;19.140;2024-03-23T01:04:49;97186.94;;;13.08
77412;BMP280;66484;49.968;19.140;2024-03-23T01:06:50;97183.75;;;13.04
77412;BMP280;66484;49.968;19.140;2024-03-23T01:08:51;97176.44;;;13.05
77412;BMP280;66484;49.968;19.140;2024-03-23T01:10:56;97179.13;;;13.05
77412;BMP280;66484;49.968;19.140;2024-03-23T01:12:57;97176.16;;;13.08
77412;BMP280;66484;49.968;19.140;2024-03-23T01:14:58;97174.47;;;13.05
77412;BMP280;66484;49.968;19.140;2024-03-23T01:16:59;97182.31;;;13.03
77412;BMP280;66484;49.968;19.140;2024-03-23T01:18:59;97179.59;;;13.09
77412;BMP280;66484;49.968;19.140;2024-03-23T01:21:00;97195.03;;;12.86
77412;BMP280;66484;49.968;19.140;2024-03-23T01:23:01;97185.72;;;12.93
77412;BMP280;66484;49.968;19.140;2024-03-23T01:25:01;97172.50;;;12.89
77412;BMP280;66484;49.968;19.140;2024-03-23T01:27:02;97179.13;;;12.94
77412;BMP280;66484;49.968;19.140;2024-03-23T01:29:03;97174.47;;;12.89
77412;BMP280;66484;49.968;19.140;2024-03-23T01:31:04;97172.53;;;12.78
77412;BMP280;66484;49.968;19.140;2024-03-23T01:33:05;97167.16;;;12.78
77412;BMP280;66484;49.968;19.140;2024-03-23T01:35:06;97153.94;;;12.80
77412;BMP280;66484;49.968;19.140;2024-03-23T01:37:07;97158.09;;;12.76
77412;BMP280;66484;49.968;19.140;2024-03-23T01:39:07;97154.44;;;12.84
77412;BMP280;66484;49.968;19.140;2024-03-23T01:41:09;97153.72;;;12.84
77412;BMP280;66484;49.968;19.140;2024-03-23T01:43:10;97142.97;;;12.84
77412;BMP280;66484;49.968;19.140;2024-03-23T01:45:11;97146.09;;;12.82
77412;BMP280;66484;49.968;19.140;2024-03-23T01:47:11;97141.94;;;12.81
77412;BMP280;66484;49.968;19.140;2024-03-23T01:49:13;97140.00;;;12.93
77412;BMP280;66484;49.968;19.140;2024-03-23T01:51:14;97143.41;;;12.82
77412;BMP280;66484;49.968;19.140;2024-03-23T01:53:15;97132.66;;;12.88
77412;BMP280;66484;49.968;19.140;2024-03-23T01:55:18;97134.41;;;12.85
77412;BMP280;66484;49.968;19.140;2024-03-23T01:57:19;97129.22;;;12.82
77412;BMP280;66484;49.968;19.140;2024-03-23T01:59:21;97134.84;;;12.89
77412;BMP280;66484;49.968;19.140;2024-03-23T02:01:22;97127.03;;;12.91
77412;BMP280;66484;49.968;19.140;2024-03-23T02:03:26;97124.84;;;12.95
77412;BMP280;66484;49.968;19.140;2024-03-23T02:05:27;97130.69;;;12.99
77412;BMP280;66484;49.968;19.140;2024-03-23T02:07:28;97121.38;;;13.00
77412;BMP280;66484;49.968;19.140;2024-03-23T02:09:29;97119.19;;;12.93
77412;BMP280;66484;49.968;19.140;2024-03-23T02:11:30;97116.78;;;12.90
77412;BMP280;66484;49.968;19.140;2024-03-23T02:13:31;97113.84;;;12.88
77412;BMP280;66484;49.968;19.140;2024-03-23T02:15:32;97119.94;;;12.77
77412;BMP280;66484;49.968;19.140;2024-03-23T02:17:34;97117.06;;;12.59
77412;BMP280;66484;49.968;19.140;2024-03-23T02:19:35;97117.78;;;12.60
77412;BMP280;66484;49.968;19.140;2024-03-23T02:21:35;97109.22;;;12.56
77412;BMP280;66484;49.968;19.140;2024-03-23T02:23:36;97111.41;;;12.63
77412;BMP280;66484;49.968;19.140;2024-03-23T02:25:37;97101.38;;;12.58
77412;BMP280;66484;49.968;19.140;2024-03-23T02:27:38;97106.75;;;12.63
77412;BMP280;66484;49.968;19.140;2024-03-23T02:29:40;97115.81;;;12.66
77412;BMP280;66484;49.968;19.140;2024-03-23T02:31:41;97111.16;;;12.72
77412;BMP280;66484;49.968;19.140;2024-03-23T02:33:42;97111.16;;;12.66
77412;BMP280;66484;49.968;19.140;2024-03-23T02:35:44;97108.94;;;12.65
77412;BMP280;66484;49.968;19.140;2024-03-23T02:37:46;97108.00;;;12.68
77412;BMP280;66484;49.968;19.140;2024-03-23T02:39:48;97118.00;;;12.73
77412;BMP280;66484;49.968;19.140;2024-03-23T02:41:49;97107.50;;;12.75
77412;BMP280;66484;49.968;19.140;2024-03-23T02:43:50;97106.50;;;12.77
77412;BMP280;66484;49.968;19.140;2024-03-23T02:45:50;97104.53;;;12.73
77412;BMP280;66484;49.968;19.140;2024-03-23T02:47:51;97100.41;;;12.66
77412;BMP280;66484;49.968;19.140;2024-03-23T02:49:52;97098.44;;;12.67
77412;BMP280;66484;49.968;19.140;2024-03-23T02:51:54;97100.66;;;12.68
77412;BMP280;66484;49.968;19.140;2024-03-23T02:53:55;97087.19;;;12.68
77412;BMP280;66484;49.968;19.140;2024-03-23T02:55:58;97085.69;;;12.83
77412;BMP280;66484;49.968;19.140;2024-03-23T02:57:58;97086.47;;;12.84
77412;BMP280;66484;49.968;19.140;2024-03-23T03:00:02;97079.34;;;12.92
77412;BMP280;66484;49.968;19.140;2024-03-23T03:02:04;97082.78;;;12.87
77412;BMP280;66484;49.968;19.140;2024-03-23T03:04:05;97071.75;;;12.79
77412;BMP280;66484;49.968;19.140;2024-03-23T03:06:06;97074.47;;;12.74
77412;BMP280;66484;49.968;19.140;2024-03-23T03:08:06;97072.28;;;12.73
77412;BMP280;66484;49.968;19.140;2024-03-23T03:10:07;97065.16;;;12.97
77412;BMP280;66484;49.968;19.140;2024-03-23T03:12:11;97055.88;;;12.98
77412;BMP280;66484;49.968;19.140;2024-03-23T03:14:12;97063.00;;;12.84
77412;BMP280;66484;49.968;19.140;2024-03-23T03:16:13;97066.88;;;12.78
77412;BMP280;66484;49.968;19.140;2024-03-23T03:18:14;97062.00;;;12.77
77412;BMP280;66484;49.968;19.140;2024-03-23T03:20:15;97061.25;;;12.81
77412;BMP280;66484;49.968;19.140;2024-03-23T03:22:18;97045.53;;;13.07
77412;BMP280;66484;49.968;19.140;2024-03-23T03:24:18;97042.78;;;13.18
77412;BMP280;66484;49.968;19.140;2024-03-23T03:26:19;97036.53;;;12.99
77412;BMP280;66484;49.968;19.140;2024-03-23T03:28:20;97033.63;;;12.86
77412;BMP280;66484;49.968;19.140;2024-03-23T03:30:24;97034.38;;;12.81
77412;BMP280;66484;49.968;19.140;2024-03-23T03:32:25;97036.09;;;12.84
77412;BMP280;66484;49.968;19.140;2024-03-23T03:34:25;97025.81;;;12.88
77412;BMP280;66484;49.968;19.140;2024-03-23T03:36:26;97045.38;;;12.73
77412;BMP280;66484;49.968;19.140;2024-03-23T03:38:27;97033.63;;;12.70
77412;BMP280;66484;49.968;19.140;2024-03-23T03:40:27;97039.78;;;12.71
77412;BMP280;66484;49.968;19.140;2024-03-23T03:42:28;97035.88;;;12.66
77412;BMP280;66484;49.968;19.140;2024-03-23T03:44:29;97040.75;;;12.68
77412;BMP280;66484;49.968;19.140;2024-03-23T03:46:29;97030.22;;;12.70
77412;BMP280;66484;49.968;19.140;2024-03-23T03:48:30;97038.56;;;12.72
77412;BMP280;66484;49.968;19.140;2024-03-23T03:50:31;97019.63;;;13.04
77412;BMP280;66484;49.968;19.140;2024-03-23T03:52:32;97026.69;;;13.07
77412;BMP280;66484;49.968;19.140;2024-03-23T03:54:33;97022.34;;;12.93
77412;BMP280;66484;49.968;19.140;2024-03-23T03:56:34;97021.44;;;12.75
77412;BMP280;66484;49.968;19.140;2024-03-23T03:58:34;97034.63;;;12.73
77412;BMP280;66484;49.968;19.140;2024-03-23T04:00:35;97030.94;;;12.76
77412;BMP280;66484;49.968;19.140;2024-03-23T04:02:37;97024.06;;;12.96
77412;BMP280;66484;49.968;19.140;2024-03-23T04:04:38;97024.94;;;13.21
77412;BMP280;66484;49.968;19.140;2024-03-23T04:06:38;97023.06;;;12.99
77412;BMP280;66484;49.968;19.140;2024-03-23T04:08:39;97019.88;;;13.06
77412;BMP280;66484;49.968;19.140;2024-03-23T04:10:40;97017.31;;;13.25
77412;BMP280;66484;49.968;19.140;2024-03-23T04:12:41;97018.59;;;13.13
77412;BMP280;66484;49.968;19.140;2024-03-23T04:14:42;97019.81;;;13.17
77412;BMP280;66484;49.968;19.140;2024-03-23T04:16:43;97017.72;;;12.94
77412;BMP280;66484;49.968;19.140;2024-03-23T04:18:43;97017.91;;;13.01
77412;BMP280;66484;49.968;19.140;2024-03-23T04:20:46;97016.53;;;12.78
77412;BMP280;66484;49.968;19.140;2024-03-23T04:22:47;97026.31;;;12.71
77412;BMP280;66484;49.968;19.140;2024-03-23T04:24:47;97017.53;;;12.65
77412;BMP280;66484;49.968;19.140;2024-03-23T04:26:48;97014.59;;;12.63
77412;BMP280;66484;49.968;19.140;2024-03-23T04:28:49;97004.31;;;12.72
77412;BMP280;66484;49.968;19.140;2024-03-23T04:30:50;97004.53;;;12.85
77412;BMP280;66484;49.968;19.140;2024-03-23T04:32:50;96994.25;;;12.89
77412;BMP280;66484;49.968;19.140;2024-03-23T04:34:51;96989.66;;;12.68
77412;BMP280;66484;49.968;19.140;2024-03-23T04:36:52;96985.72;;;12.69
77412;BMP280;66484;49.968;19.140;2024-03-23T04:38:53;96992.34;;;12.68
77412;BMP280;66484;49.968;19.140;2024-03-23T04:40:57;96987.91;;;12.86
77412;BMP280;66484;49.968;19.140;2024-03-23T04:42:58;96978.88;;;12.78
77412;BMP280;66484;49.968;19.140;2024-03-23T04:44:59;96979.81;;;12.86
77412;BMP280;66484;49.968;19.140;2024-03-23T04:47:00;96976.91;;;12.84
77412;BMP280;66484;49.968;19.140;2024-03-23T04:49:01;96973.00;;;12.75
77412;BMP280;66484;49.968;19.140;2024-03-23T04:51:04;96974.44;;;12.86
77412;BMP280;66484;49.968;19.140;2024-03-23T04:53:05;96969.25;;;12.26
77412;BMP280;66484;49.968;19.140;2024-03-23T04:55:06;96971.19;;;12.26
77412;BMP280;66484;49.968;19.140;2024-03-23T04:57:07;96975.31;;;12.32
77412;BMP280;66484;49.968;19.140;2024-03-23T04:59:08;96961.88;;;12.38
77412;BMP280;66484;49.968;19.140;2024-03-23T05:01:10;96965.28;;;12.44
77412;BMP280;66484;49.968;19.140;2024-03-23T05:03:11;96958.97;;;12.36
77412;BMP280;66484;49.968;19.140;2024-03-23T05:05:11;96965.13;;;12.04
77412;BMP280;66484;49.968;19.140;2024-03-23T05:07:12;96954.88;;;12.02
77412;BMP280;66484;49.968;19.140;2024-03-23T05:09:13;96953.66;;;12.03
77412;BMP280;66484;49.968;19.140;2024-03-23T05:11:14;96956.81;;;12.07
77412;BMP280;66484;49.968;19.140;2024-03-23T05:13:16;96957.81;;;12.04
77412;BMP280;66484;49.968;19.140;2024-03-23T05:15:16;96956.56;;;12.05
77412;BMP280;66484;49.968;19.140;2024-03-23T05:17:17;96953.13;;;12.21
77412;BMP280;66484;49.968;19.140;2024-03-23T05:19:18;96941.88;;;12.23
77412;BMP280;66484;49.968;19.140;2024-03-23T05:21:19;96950.41;;;12.32
77412;BMP280;66484;49.968;19.140;2024-03-23T05:23:19;96955.31;;;12.23
77412;BMP280;66484;49.968;19.140;2024-03-23T05:25:20;96958.25;;;12.19
77412;BMP280;66484;49.968;19.140;2024-03-23T05:27:21;96960.22;;;12.13
77412;BMP280;66484;49.968;19.140;2024-03-23T05:29:22;96961.41;;;12.23
77412;BMP280;66484;49.968;19.140;2024-03-23T05:31:27;96955.78;;;12.37
77412;BMP280;66484;49.968;19.140;2024-03-23T05:33:28;96959.91;;;12.38
77412;BMP280;66484;49.968;19.140;2024-03-23T05:35:29;96956.19;;;12.52
77412;BMP280;66484;49.968;19.140;2024-03-23T05:37:29;96961.31;;;12.67
77412;BMP280;66484;49.968;19.140;2024-03-23T05:39:31;96962.25;;;12.75
77412;BMP280;66484;49.968;19.140;2024-03-23T05:41:32;96963.25;;;12.72
77412;BMP280;66484;49.968;19.140;2024-03-23T05:43:34;96956.16;;;12.69
77412;BMP280;66484;49.968;19.140;2024-03-23T05:45:34;96944.69;;;12.63
77412;BMP280;66484;49.968;19.140;2024-03-23T05:47:35;96945.16;;;12.67
77412;BMP280;66484;49.968;19.140;2024-03-23T05:49:36;96939.28;;;12.74
77412;BMP280;66484;49.968;19.140;2024-03-23T05:51:36;96939.31;;;12.63
77412;BMP280;66484;49.968;19.140;2024-03-23T05:53:37;96938.84;;;12.59
77412;BMP280;66484;49.968;19.140;2024-03-23T05:55:38;96935.41;;;12.64
77412;BMP280;66484;49.968;19.140;2024-03-23T05:57:39;96934.88;;;12.71
77412;BMP280;66484;49.968;19.140;2024-03-23T05:59:40;96930.25;;;12.66
77412;BMP280;66484;49.968;19.140;2024-03-23T06:01:41;96934.94;;;12.60
77412;BMP280;66484;49.968;19.140;2024-03-23T06:03:41;96940.50;;;12.67
77412;BMP280;66484;49.968;19.140;2024-03-23T06:05:44;96935.56;;;12.82
77412;BMP280;66484;49.968;19.140;2024-03-23T06:07:47;96931.41;;;12.81
77412;BMP280;66484;49.968;19.140;2024-03-23T06:09:50;96935.84;;;12.78
77412;BMP280;66484;49.968;19.140;2024-03-23T06:11:51;96947.53;;;12.86
77412;BMP280;66484;49.968;19.140;2024-03-23T06:13:52;96938.72;;;12.91
77412;BMP280;66484;49.968;19.140;2024-03-23T06:15:52;96937.94;;;13.02
77412;BMP280;66484;49.968;19.140;2024-03-23T06:17:53;96947.41;;;13.14
77412;BMP280;66484;49.968;19.140;2024-03-23T06:19:54;96944.41;;;13.28
77412;BMP280;66484;49.968;19.140;2024-03-23T06:21:55;96943.78;;;13.46
77412;BMP280;66484;49.968;19.140;2024-03-23T06:23:56;96937.69;;;13.40
77412;BMP280;66484;49.968;19.140;2024-03-23T06:25:57;96939.91;;;13.36
77412;BMP280;66484;49.968;19.140;2024-03-23T06:27:57;96941.13;;;13.40
77412;BMP280;66484;49.968;19.140;2024-03-23T06:29:59;96933.03;;;13.46
77412;BMP280;66484;49.968;19.140;2024-03-23T06:32:00;96931.56;;;13.45
77412;BMP280;66484;49.968;19.140;2024-03-23T06:34:00;96933.88;;;13.59
77412;BMP280;66484;49.968;19.140;2024-03-23T06:36:03;96922.72;;;13.79
77412;BMP280;66484;49.968;19.140;2024-03-23T06:38:04;96915.13;;;13.78
77412;BMP280;66484;49.968;19.140;2024-03-23T06:40:05;96913.72;;;13.42
77412;BMP280;66484;49.968;19.140;2024-03-23T06:42:10;96911.16;;;13.20
77412;BMP280;66484;49.968;19.140;2024-03-23T06:44:10;96920.16;;;13.28
77412;BMP280;66484;49.968;19.140;2024-03-23T06:46:11;96929.41;;;13.38
77412;BMP280;66484;49.968;19.140;2024-03-23T06:48:12;96921.25;;;13.49
77412;BMP280;66484;49.968;19.140;2024-03-23T06:50:12;96920.91;;;13.58
77412;BMP280;66484;49.968;19.140;2024-03-23T06:52:13;96924.06;;;13.62
77412;BMP280;66484;49.968;19.140;2024-03-23T06:54:14;96926.38;;;13.82
77412;BMP280;66484;49.968;19.140;2024-03-23T06:56:15;96919.38;;;13.97
77412;BMP280;66484;49.968;19.140;2024-03-23T06:58:16;96921.69;;;14.11
77412;BMP280;66484;49.968;19.140;2024-03-23T07:00:16;96920.97;;;14.35
77412;BMP280;66484;49.968;19.140;2024-03-23T07:02:17;96912.91;;;14.53
77412;BMP280;66484;49.968;19.140;2024-03-23T07:04:18;96900.25;;;14.66
77412;BMP280;66484;49.968;19.140;2024-03-23T07:06:19;96889.03;;;14.81
77412;BMP280;66484;49.968;19.140;2024-03-23T07:08:19;96893.56;;;14.73
77412;BMP280;66484;49.968;19.140;2024-03-23T07:10:22;96878.91;;;14.87
77412;BMP280;66484;49.968;19.140;2024-03-23T07:12:23;96867.44;;;14.81
77412;BMP280;66484;49.968;19.140;2024-03-23T07:14:24;96871.66;;;14.76
77412;BMP280;66484;49.968;19.140;2024-03-23T07:16:26;96878.53;;;14.77
77412;BMP280;66484;49.968;19.140;2024-03-23T07:18:27;96878.19;;;14.86
77412;BMP280;66484;49.968;19.140;2024-03-23T07:20:29;96877.94;;;14.84
77412;BMP280;66484;49.968;19.140;2024-03-23T07:22:32;96885.34;;;14.60
77412;BMP280;66484;49.968;19.140;2024-03-23T07:24:32;96879.69;;;14.45
77412;BMP280;66484;49.968;19.140;2024-03-23T07:26:33;96872.16;;;14.38
77412;BMP280;66484;49.968;19.140;2024-03-23T07:28:34;96869.00;;;14.34
77412;BMP280;66484;49.968;19.140;2024-03-23T07:30:36;96859.88;;;14.19
77412;BMP280;66484;49.968;19.140;2024-03-23T07:32:37;96867.78;;;14.11
77412;BMP280;66484;49.968;19.140;2024-03-23T07:34:38;96868.69;;;14.19
77412;BMP280;66484;49.968;19.140;2024-03-23T07:36:38;96860.09;;;14.21
77412;BMP280;66484;49.968;19.140;2024-03-23T07:38:43;96869.66;;;13.92
77412;BMP280;66484;49.968;19.140;2024-03-23T07:40:45;96863.44;;;14.03
77412;BMP280;66484;49.968;19.140;2024-03-23T07:42:46;96863.19;;;14.06
77412;BMP280;66484;49.968;19.140;2024-03-23T07:44:46;96873.41;;;14.13
77412;BMP280;66484;49.968;19.140;2024-03-23T07:46:47;96857.00;;;14.11
77412;BMP280;66484;49.968;19.140;2024-03-23T07:48:48;96859.06;;;14.24
77412;BMP280;66484;49.968;19.140;2024-03-23T07:50:57;96858.88;;;14.40
77412;BMP280;66484;49.968;19.140;2024-03-23T07:52:58;96857.53;;;14.52
77412;BMP280;66484;49.968;19.140;2024-03-23T07:54:59;96851.41;;;14.70
77412;BMP280;66484;49.968;19.140;2024-03-23T07:57:00;96844.69;;;14.94
77412;BMP280;66484;49.968;19.140;2024-03-23T07:59:00;96842.75;;;15.26
77412;BMP280;66484;49.968;19.140;2024-03-23T08:01:05;96845.53;;;15.52
77412;BMP280;66484;49.968;19.140;2024-03-23T08:03:08;96842.25;;;15.59
77412;BMP280;66484;49.968;19.140;2024-03-23T08:05:09;96845.75;;;15.54
77412;BMP280;66484;49.968;19.140;2024-03-23T08:07:09;96843.25;;;15.56
77412;BMP280;66484;49.968;19.140;2024-03-23T08:09:10;96839.75;;;15.74
77412;BMP280;66484;49.968;19.140;2024-03-23T08:11:11;96836.00;;;15.64
77412;BMP280;66484;49.968;19.140;2024-03-23T08:13:13;96829.25;;;15.70
77412;BMP280;66484;49.968;19.140;2024-03-23T08:15:14;96832.47;;;15.69
77412;BMP280;66484;49.968;19.140;2024-03-23T08:17:14;96831.97;;;15.70
77412;BMP280;66484;49.968;19.140;2024-03-23T08:19:15;96821.16;;;15.70
77412;BMP280;66484;49.968;19.140;2024-03-23T08:21:16;96819.06;;;15.76
77412;BMP280;66484;49.968;19.140;2024-03-23T08:23:16;96820.63;;;15.85
77412;BMP280;66484;49.968;19.140;2024-03-23T08:25:17;96809.94;;;15.92
77412;BMP280;66484;49.968;19.140;2024-03-23T08:27:18;96803.16;;;15.99
77412;BMP280;66484;49.968;19.140;2024-03-23T08:29:19;96795.28;;;16.13
77412;BMP280;66484;49.968;19.140;2024-03-23T08:31:19;96784.16;;;16.30
77412;BMP280;66484;49.968;19.140;2024-03-23T08:33:21;96771.88;;;16.42
77412;BMP280;66484;49.968;19.140;2024-03-23T08:35:22;96782.88;;;16.57
77412;BMP280;66484;49.968;19.140;2024-03-23T08:37:23;96787.88;;;16.73
77412;BMP280;66484;49.968;19.140;2024-03-23T08:39:25;96784.94;;;16.84
77412;BMP280;66484;49.968;19.140;2024-03-23T08:41:26;96776.75;;;16.76
77412;BMP280;66484;49.968;19.140;2024-03-23T08:43:26;96776.03;;;16.96
77412;BMP280;66484;49.968;19.140;2024-03-23T08:45:27;96769.25;;;17.03
77412;BMP280;66484;49.968;19.140;2024-03-23T08:47:28;96755.06;;;17.09
77412;BMP280;66484;49.968;19.140;2024-03-23T08:49:29;96750.84;;;17.21
77412;BMP280;66484;49.968;19.140;2024-03-23T08:51:29;96747.88;;;17.32
77412;BMP280;66484;49.968;19.140;2024-03-23T08:53:30;96745.94;;;17.40
77412;BMP280;66484;49.968;19.140;2024-03-23T08:55:31;96740.06;;;17.49
77412;BMP280;66484;49.968;19.140;2024-03-23T08:57:32;96746.16;;;17.70
77412;BMP280;66484;49.968;19.140;2024-03-23T08:59:33;96731.06;;;17.82
77412;BMP280;66484;49.968;19.140;2024-03-23T09:01:33;96740.81;;;17.85
77412;BMP280;66484;49.968;19.140;2024-03-23T09:03:35;96738.69;;;17.91
77412;BMP280;66484;49.968;19.140;2024-03-23T09:05:39;96735.91;;;18.11
77412;BMP280;66484;49.968;19.140;2024-03-23T09:07:40;96715.72;;;18.19
77412;BMP280;66484;49.968;19.140;2024-03-23T09:09:41;96721.97;;;18.15
77412;BMP280;66484;49.968;19.140;2024-03-23T09:11:42;96721.53;;;18.31
77412;BMP280;66484;49.968;19.140;2024-03-23T09:13:43;96706.00;;;18.31
77412;BMP280;66484;49.968;19.140;2024-03-23T09:15:51;96694.38;;;18.23
77412;BMP280;66484;49.968;19.140;2024-03-23T09:17:52;96688.94;;;18.16
77412;BMP280;66484;49.968;19.140;2024-03-23T09:19:52;96688.94;;;17.88
77412;BMP280;66484;49.968;19.140;2024-03-23T09:21:53;96686.28;;;17.96
77412;BMP280;66484;49.968;19.140;2024-03-23T09:23:54;96684.81;;;17.87
77412;BMP280;66484;49.968;19.140;2024-03-23T09:25:55;96681.97;;;18.08
77412;BMP280;66484;49.968;19.140;2024-03-23T09:27:56;96673.06;;;18.27
77412;BMP280;66484;49.968;19.140;2024-03-23T09:29:57;96657.53;;;18.35
77412;BMP280;66484;49.968;19.140;2024-03-23T09:31:57;96667.34;;;18.53
77412;BMP280;66484;49.968;19.140;2024-03-23T09:33:58;96660.06;;;18.48
77412;BMP280;66484;49.968;19.140;2024-03-23T09:36:03;96652.44;;;18.39
77412;BMP280;66484;49.968;19.140;2024-03-23T09:38:04;96650.31;;;18.45
77412;BMP280;66484;49.968;19.140;2024-03-23T09:40:09;96645.97;;;18.42
77412;BMP280;66484;49.968;19.140;2024-03-23T09:42:10;96642.84;;;18.23
77412;BMP280;66484;49.968;19.140;2024-03-23T09:44:11;96630.88;;;18.19
77412;BMP280;66484;49.968;19.140;2024-03-23T09:46:12;96627.38;;;18.04
77412;BMP280;66484;49.968;19.140;2024-03-23T09:48:13;96619.03;;;18.02
77412;BMP280;66484;49.968;19.140;2024-03-23T09:50:14;96626.56;;;18.23
77412;BMP280;66484;49.968;19.140;2024-03-23T09:52:14;96617.63;;;18.08
77412;BMP280;66484;49.968;19.140;2024-03-23T09:54:15;96619.50;;;18.20
77412;BMP280;66484;49.968;19.140;2024-03-23T09:56:16;96626.56;;;18.23
77412;BMP280;66484;49.968;19.140;2024-03-23T09:58:18;96613.88;;;18.18
77412;BMP280;66484;49.968;19.140;2024-03-23T10:00:19;96611.16;;;18.18
77412;BMP280;66484;49.968;19.140;2024-03-23T10:02:21;96595.81;;;18.28
77412;BMP280;66484;49.968;19.140;2024-03-23T10:04:41;96593.81;;;18.36
77412;BMP280;66484;49.968;19.140;2024-03-23T10:06:42;96582.59;;;18.32
77412;BMP280;66484;49.968;19.140;2024-03-23T10:08:43;96575.75;;;18.46
77412;BMP280;66484;49.968;19.140;2024-03-23T10:10:44;96568.16;;;18.60
77412;BMP280;66484;49.968;19.140;2024-03-23T10:12:47;96567.06;;;18.55
77412;BMP280;66484;49.968;19.140;2024-03-23T10:14:48;96555.09;;;18.43
77412;BMP280;66484;49.968;19.140;2024-03-23T10:16:49;96541.19;;;18.62
77412;BMP280;66484;49.968;19.140;2024-03-23T10:18:50;96537.22;;;18.55
77412;BMP280;66484;49.968;19.140;2024-03-23T10:21:06;96539.91;;;18.63
77412;BMP280;66484;49.968;19.140;2024-03-23T10:23:16;96550.06;;;18.62
77412;BMP280;66484;49.968;19.140;2024-03-23T10:25:17;96545.88;;;18.61
77412;BMP280;66484;49.968;19.140;2024-03-23T10:27:19;96543.16;;;18.61
77412;BMP280;66484;49.968;19.140;2024-03-23T10:29:20;96539.91;;;18.77
77412;BMP280;66484;49.968;19.140;2024-03-23T10:31:21;96537.88;;;18.93
77412;BMP280;66484;49.968;19.140;2024-03-23T10:33:22;96539.50;;;19.03
77412;BMP280;66484;49.968;19.140;2024-03-23T10:35:23;96539.34;;;19.09
77412;BMP280;66484;49.968;19.140;2024-03-23T10:37:24;96530.47;;;19.01
77412;BMP280;66484;49.968;19.140;2024-03-23T10:39:25;96511.81;;;19.05
77412;BMP280;66484;49.968;19.140;2024-03-23T10:41:27;96505.84;;;18.99
77412;BMP280;66484;49.968;19.140;2024-03-23T10:43:32;96513.44;;;18.93
77412;BMP280;66484;49.968;19.140;2024-03-23T10:45:33;96508.00;;;19.08
77412;BMP280;66484;49.968;19.140;2024-03-23T10:47:35;96508.13;;;19.25
77412;BMP280;66484;49.968;19.140;2024-03-23T10:49:40;96506.88;;;19.26
77412;BMP280;66484;49.968;19.140;2024-03-23T10:51:41;96493.13;;;19.24
77412;BMP280;66484;49.968;19.140;2024-03-23T10:53:42;96485.16;;;19.18
77412;BMP280;66484;49.968;19.140;2024-03-23T10:55:43;96494.38;;;19.23
77412;BMP280;66484;49.968;19.140;2024-03-23T10:57:49;96500.00;;;19.17
77412;BMP280;66484;49.968;19.140;2024-03-23T10:59:51;96488.03;;;19.27
77412;BMP280;66484;49.968;19.140;2024-03-23T11:01:59;96478.94;;;19.32
77412;BMP280;66484;49.968;19.140;2024-03-23T11:04:00;96476.44;;;19.27
77412;BMP280;66484;49.968;19.140;2024-03-23T11:06:00;96475.41;;;19.15
77412;BMP280;66484;49.968;19.140;2024-03-23T11:08:01;96466.28;;;19.27
77412;BMP280;66484;49.968;19.140;2024-03-23T11:10:29;96467.31;;;19.39
77412;BMP280;66484;49.968;19.140;2024-03-23T11:12:31;96458.88;;;19.60
77412;BMP280;66484;49.968;19.140;2024-03-23T11:14:36;96457.81;;;19.55
77412;BMP280;66484;49.968;19.140;2024-03-23T11:16:37;96457.97;;;19.57
77412;BMP280;66484;49.968;19.140;2024-03-23T11:18:40;96450.56;;;19.58
77412;BMP280;66484;49.968;19.140;2024-03-23T11:20:41;96441.44;;;19.70
77412;BMP280;66484;49.968;19.140;2024-03-23T11:24:50;96427.16;;;19.62
77412;BMP280;66484;49.968;19.140;2024-03-23T11:26:51;96410.13;;;19.86
77412;BMP280;66484;49.968;19.140;2024-03-23T11:29:09;96407.91;;;19.92
77412;BMP280;66484;49.968;19.140;2024-03-23T11:31:10;96385.16;;;19.80
77412;BMP280;66484;49.968;19.140;2024-03-23T11:33:12;96395.69;;;19.76
77412;BMP280;66484;49.968;19.140;2024-03-23T11:37:36;96383.69;;;19.79
77412;BMP280;66484;49.968;19.140;2024-03-23T11:39:37;96377.28;;;19.91
77412;BMP280;66484;49.968;19.140;2024-03-23T11:41:48;96381.88;;;19.81
77412;BMP280;66484;49.968;19.140;2024-03-23T11:43:49;96370.03;;;19.62
77412;BMP280;66484;49.968;19.140;2024-03-23T11:45:51;96360.19;;;19.74
77412;BMP280;66484;49.968;19.140;2024-03-23T11:50:04;96331.41;;;19.64
77412;BMP280;66484;49.968;19.140;2024-03-23T11:52:05;96329.75;;;19.68
77412;BMP280;66484;49.968;19.140;2024-03-23T11:54:09;96316.25;;;19.78
77412;BMP280;66484;49.968;19.140;2024-03-23T11:56:10;96323.06;;;19.86
77412;BMP280;66484;49.968;19.140;2024-03-23T11:58:11;96329.41;;;19.64
77412;BMP280;66484;49.968;19.140;2024-03-23T12:00:21;96329.94;;;19.70
77412;BMP280;66484;49.968;19.140;2024-03-23T12:02:22;96314.69;;;19.67
77412;BMP280;66484;49.968;19.140;2024-03-23T12:04:29;96300.72;;;19.71
77412;BMP280;66484;49.968;19.140;2024-03-23T12:06:30;96305.47;;;19.87
77412;BMP280;66484;49.968;19.140;2024-03-23T12:08:34;96293.41;;;19.97
77412;BMP280;66484;49.968;19.140;2024-03-23T12:10:35;96290.97;;;20.09
77412;BMP280;66484;49.968;19.140;2024-03-23T12:12:36;96284.06;;;20.25
77412;BMP280;66484;49.968;19.140;2024-03-23T12:14:37;96273.97;;;20.34
77412;BMP280;66484;49.968;19.140;2024-03-23T12:16:38;96257.97;;;20.38
77412;BMP280;66484;49.968;19.140;2024-03-23T12:18:42;96262.31;;;20.41
77412;BMP280;66484;49.968;19.140;2024-03-23T12:20:44;96255.25;;;20.55
77412;BMP280;66484;49.968;19.140;2024-03-23T12:22:45;96256.97;;;20.60
77412;BMP280;66484;49.968;19.140;2024-03-23T12:24:47;96253.78;;;20.54
77412;BMP280;66484;49.968;19.140;2024-03-23T12:26:48;96233.59;;;20.57
77412;BMP280;66484;49.968;19.140;2024-03-23T12:28:50;96242.72;;;20.52